sensor_id;sensor_type;location;lat;lon;timestamp;pressure;altitude;pressure_sealevel;temperature;humidity
68137;BME280;54939;50.826;9.030;2023-01-31T00:00:24;99283.97;;;4.29;70.42
68137;BME280;54939;50.826;9.030;2023-01-31T00:00:54;99283.97;;;4.29;70.32
68137;BME280;54939;50.826;9.030;2023-01-31T00:01:26;99282.16;;;4.29;70.41
68137;BME280;54939;50.826;9.030;2023-01-31T00:01:56;99283.13;;;4.28;69.61
68137;BME280;54939;50.826;9.030;2023-01-31T00:02:26;99277.84;;;4.28;70.38
68137;BME280;54939;50.826;9.030;2023-01-31T00:02:57;99278.66;;;4.29;70.24
68137;BME280;54939;50.826;9.030;2023-01-31T00:03:27;99273.38;;;4.29;70.22
68137;BME280;54939;50.826;9.030;2023-01-31T00:04:01;99278.56;;;4.30;70.20
68137;BME280;54939;50.826;9.030;2023-01-31T00:04:31;99279.66;;;4.28;70.30
68137;BME280;54939;50.826;9.030;2023-01-31T00:05:01;99272.66;;;4.27;69.94
68137;BME280;54939;50.826;9.030;2023-01-31T00:05:32;99274.44;;;4.26;69.68
68137;BME280;54939;50.826;9.030;2023-01-31T00:06:24;99280.59;;;4.27;70.00
68137;BME280;54939;50.826;9.030;2023-01-31T00:06:52;99283.13;;;4.28;70.22
68137;BME280;54939;50.826;9.030;2023-01-31T00:07:23;99288.44;;;4.28;70.31
68137;BME280;54939;50.826;9.030;2023-01-31T00:07:53;99284.94;;;4.28;70.25
68137;BME280;54939;50.826;9.030;2023-01-31T00:08:23;99281.44;;;4.27;70.01
68137;BME280;54939;50.826;9.030;2023-01-31T00:08:53;99285.78;;;4.28;69.61
68137;BME280;54939;50.826;9.030;2023-01-31T00:09:24;99286.72;;;4.27;69.73
68137;BME280;54939;50.826;9.030;2023-01-31T00:09:54;99289.25;;;4.29;70.18
68137;BME280;54939;50.826;9.030;2023-01-31T00:10:24;99282.06;;;4.31;69.64
68137;BME280;54939;50.826;9.030;2023-01-31T00:10:57;99282.91;;;4.31;69.58
68137;BME280;54939;50.826;9.030;2023-01-31T00:11:28;99290.84;;;4.31;69.77
68137;BME280;54939;50.826;9.030;2023-01-31T00:11:58;99280.28;;;4.31;70.28
68137;BME280;54939;50.826;9.030;2023-01-31T00:12:28;99289.16;;;4.30;70.06
68137;BME280;54939;50.826;9.030;2023-01-31T00:12:58;99289.16;;;4.30;69.70
68137;BME280;54939;50.826;9.030;2023-01-31T00:13:28;99279.53;;;4.29;70.03
68137;BME280;54939;50.826;9.030;2023-01-31T00:13:59;99283.13;;;4.28;69.95
68137;BME280;54939;50.826;9.030;2023-01-31T00:14:29;99274.38;;;4.28;69.90
68137;BME280;54939;50.826;9.030;2023-01-31T00:14:59;99283.13;;;4.28;70.33
68137;BME280;54939;50.826;9.030;2023-01-31T00:15:30;99283.13;;;4.28;70.06
68137;BME280;54939;50.826;9.030;2023-01-31T00:16:00;99283.13;;;4.28;70.29
68137;BME280;54939;50.826;9.030;2023-01-31T00:16:30;99287.56;;;4.28;70.30
68137;BME280;54939;50.826;9.030;2023-01-31T00:17:00;99279.75;;;4.26;70.05
68137;BME280;54939;50.826;9.030;2023-01-31T00:17:30;99285.88;;;4.27;69.77
68137;BME280;54939;50.826;9.030;2023-01-31T00:18:01;99292.00;;;4.27;70.35
68137;BME280;54939;50.826;9.030;2023-01-31T00:18:31;99284.09;;;4.27;70.29
68137;BME280;54939;50.826;9.030;2023-01-31T00:19:02;99288.50;;;4.27;70.03
68137;BME280;54939;50.826;9.030;2023-01-31T00:19:32;99290.31;;;4.26;69.68
68137;BME280;54939;50.826;9.030;2023-01-31T00:20:02;99287.66;;;4.26;70.35
68137;BME280;54939;50.826;9.030;2023-01-31T00:20:33;99287.66;;;4.26;70.07
68137;BME280;54939;50.826;9.030;2023-01-31T00:21:20;99291.06;;;4.28;69.83
68137;BME280;54939;50.826;9.030;2023-01-31T00:21:52;99292.00;;;4.27;69.78
68137;BME280;54939;50.826;9.030;2023-01-31T00:22:22;99290.31;;;4.26;69.86
68137;BME280;54939;50.826;9.030;2023-01-31T00:22:52;99290.31;;;4.26;69.88
68137;BME280;54939;50.826;9.030;2023-01-31T00:23:22;99284.19;;;4.26;70.09
68137;BME280;54939;50.826;9.030;2023-01-31T00:23:53;99290.31;;;4.26;70.35
68137;BME280;54939;50.826;9.030;2023-01-31T00:24:23;99293.91;;;4.25;70.40
68137;BME280;54939;50.826;9.030;2023-01-31T00:24:53;99286.81;;;4.26;69.85
68137;BME280;54939;50.826;9.030;2023-01-31T00:25:24;99289.38;;;4.27;70.04
68137;BME280;54939;50.826;9.030;2023-01-31T00:25:54;99284.81;;;4.29;69.86
68137;BME280;54939;50.826;9.030;2023-01-31T00:26:28;99288.44;;;4.28;70.01
68137;BME280;54939;50.826;9.030;2023-01-31T00:26:58;99277.84;;;4.28;70.04
68137;BME280;54939;50.826;9.030;2023-01-31T00:27:28;99278.66;;;4.29;70.28
68137;BME280;54939;50.826;9.030;2023-01-31T00:27:59;99283.00;;;4.30;69.84
68137;BME280;54939;50.826;9.030;2023-01-31T00:28:29;99275.22;;;4.28;69.58
68137;BME280;54939;50.826;9.030;2023-01-31T00:28:59;99277.84;;;4.28;69.75
68137;BME280;54939;50.826;9.030;2023-01-31T00:29:30;99274.22;;;4.29;69.62
68137;BME280;54939;50.826;9.030;2023-01-31T00:30:00;99276.03;;;4.29;70.06
68137;BME280;54939;50.826;9.030;2023-01-31T00:30:31;99276.16;;;4.27;69.86
68137;BME280;54939;50.826;9.030;2023-01-31T00:31:01;99279.66;;;4.28;70.39
68137;BME280;54939;50.826;9.030;2023-01-31T00:31:32;99278.78;;;4.27;69.88
68137;BME280;54939;50.826;9.030;2023-01-31T00:32:02;99273.50;;;4.27;69.96
68137;BME280;54939;50.826;9.030;2023-01-31T00:32:33;99276.16;;;4.27;69.79
68137;BME280;54939;50.826;9.030;2023-01-31T00:33:03;99273.50;;;4.27;69.73
68137;BME280;54939;50.826;9.030;2023-01-31T00:33:33;99271.72;;;4.28;70.00
68137;BME280;54939;50.826;9.030;2023-01-31T00:34:03;99275.31;;;4.27;70.26
68137;BME280;54939;50.826;9.030;2023-01-31T00:34:34;99278.78;;;4.27;69.93
68137;BME280;54939;50.826;9.030;2023-01-31T00:35:04;99276.88;;;4.29;70.25
68137;BME280;54939;50.826;9.030;2023-01-31T00:35:36;99274.22;;;4.29;69.95
68137;BME280;54939;50.826;9.030;2023-01-31T00:36:14;99277.84;;;4.28;69.68
68137;BME280;54939;50.826;9.030;2023-01-31T00:36:44;99284.09;;;4.27;70.24
68137;BME280;54939;50.826;9.030;2023-01-31T00:37:14;99277.84;;;4.28;69.67
68137;BME280;54939;50.826;9.030;2023-01-31T00:37:45;99277.84;;;4.28;69.88
68137;BME280;54939;50.826;9.030;2023-01-31T00:38:15;99286.72;;;4.27;70.00
68137;BME280;54939;50.826;9.030;2023-01-31T00:38:52;99274.38;;;4.28;70.29
68137;BME280;54939;50.826;9.030;2023-01-31T00:39:23;99281.31;;;4.29;70.05
68137;BME280;54939;50.826;9.030;2023-01-31T00:39:53;99283.97;;;4.29;70.37
68137;BME280;54939;50.826;9.030;2023-01-31T00:40:23;99279.66;;;4.28;69.77
68137;BME280;54939;50.826;9.030;2023-01-31T00:40:53;99278.66;;;4.29;70.03
68137;BME280;54939;50.826;9.030;2023-01-31T00:41:24;99283.13;;;4.28;69.94
68137;BME280;54939;50.826;9.030;2023-01-31T00:41:55;99283.13;;;4.28;70.33
68137;BME280;54939;50.826;9.030;2023-01-31T00:42:25;99286.72;;;4.27;70.20
68137;BME280;54939;50.826;9.030;2023-01-31T00:42:55;99284.09;;;4.27;69.88
68137;BME280;54939;50.826;9.030;2023-01-31T00:43:25;99284.09;;;4.27;70.02
68137;BME280;54939;50.826;9.030;2023-01-31T00:43:56;99284.19;;;4.26;69.59
68137;BME280;54939;50.826;9.030;2023-01-31T00:44:26;99287.56;;;4.28;70.39
68137;BME280;54939;50.826;9.030;2023-01-31T00:44:56;99285.78;;;4.28;69.98
68137;BME280;54939;50.826;9.030;2023-01-31T00:45:26;99286.59;;;4.29;70.05
68137;BME280;54939;50.826;9.030;2023-01-31T00:45:57;99276.16;;;4.27;70.22
68137;BME280;54939;50.826;9.030;2023-01-31T00:46:27;99281.44;;;4.27;70.24
68137;BME280;54939;50.826;9.030;2023-01-31T00:46:57;99277.94;;;4.27;70.48
68137;BME280;54939;50.826;9.030;2023-01-31T00:47:27;99280.38;;;4.30;69.85
68137;BME280;54939;50.826;9.030;2023-01-31T00:47:57;99280.38;;;4.30;70.14
68137;BME280;54939;50.826;9.030;2023-01-31T00:48:28;99271.59;;;4.29;69.55
68137;BME280;54939;50.826;9.030;2023-01-31T00:48:58;99282.16;;;4.29;69.63
68137;BME280;54939;50.826;9.030;2023-01-31T00:49:28;99280.50;;;4.28;69.79
68137;BME280;54939;50.826;9.030;2023-01-31T00:49:59;99281.31;;;4.29;70.24
68137;BME280;54939;50.826;9.030;2023-01-31T00:50:29;99284.81;;;4.29;70.39
68137;BME280;54939;50.826;9.030;2023-01-31T00:50:59;99286.59;;;4.29;70.36
68137;BME280;54939;50.826;9.030;2023-01-31T00:51:29;99284.81;;;4.29;69.92
68137;BME280;54939;50.826;9.030;2023-01-31T00:52:00;99289.16;;;4.30;69.97
68137;BME280;54939;50.826;9.030;2023-01-31T00:52:30;99283.88;;;4.30;69.63
68137;BME280;54939;50.826;9.030;2023-01-31T00:53:00;99283.97;;;4.29;70.17
68137;BME280;54939;50.826;9.030;2023-01-31T00:53:31;99290.94;;;4.30;69.81
68137;BME280;54939;50.826;9.030;2023-01-31T00:54:01;99286.59;;;4.29;69.81
68137;BME280;54939;50.826;9.030;2023-01-31T00:54:31;99290.94;;;4.30;69.93
68137;BME280;54939;50.826;9.030;2023-01-31T00:55:01;99297.94;;;4.31;70.01
68137;BME280;54939;50.826;9.030;2023-01-31T00:55:31;99289.16;;;4.30;70.32
68137;BME280;54939;50.826;9.030;2023-01-31T00:56:05;99293.59;;;4.30;69.93
68137;BME280;54939;50.826;9.030;2023-01-31T00:56:36;99287.34;;;4.31;70.18
68137;BME280;54939;50.826;9.030;2023-01-31T00:57:10;99287.44;;;4.29;70.12
68137;BME280;54939;50.826;9.030;2023-01-31T00:57:40;99301.50;;;4.30;69.83
68137;BME280;54939;50.826;9.030;2023-01-31T00:58:10;99300.66;;;4.29;70.18
68137;BME280;54939;50.826;9.030;2023-01-31T00:58:40;99296.22;;;4.30;69.66
68137;BME280;54939;50.826;9.030;2023-01-31T00:59:10;99304.06;;;4.31;69.62
68137;BME280;54939;50.826;9.030;2023-01-31T00:59:41;99297.06;;;4.30;69.98
68137;BME280;54939;50.826;9.030;2023-01-31T01:00:11;99301.50;;;4.30;69.64
68137;BME280;54939;50.826;9.030;2023-01-31T01:00:41;99294.53;;;4.29;70.19
68137;BME280;54939;50.826;9.030;2023-01-31T01:01:13;99296.22;;;4.30;70.22
68137;BME280;54939;50.826;9.030;2023-01-31T01:01:43;99307.66;;;4.30;69.94
68137;BME280;54939;50.826;9.030;2023-01-31T01:02:13;99303.44;;;4.28;70.39
68137;BME280;54939;50.826;9.030;2023-01-31T01:02:44;99307.88;;;4.27;70.33
68137;BME280;54939;50.826;9.030;2023-01-31T01:03:14;99308.59;;;4.29;69.86
68137;BME280;54939;50.826;9.030;2023-01-31T01:03:44;99305.09;;;4.29;70.02
68137;BME280;54939;50.826;9.030;2023-01-31T01:04:15;99313.03;;;4.29;69.53
68137;BME280;54939;50.826;9.030;2023-01-31T01:04:45;99309.56;;;4.28;70.04
68137;BME280;54939;50.826;9.030;2023-01-31T01:05:15;99313.16;;;4.27;70.29
68137;BME280;54939;50.826;9.030;2023-01-31T01:05:45;99309.66;;;4.27;70.45
68137;BME280;54939;50.826;9.030;2023-01-31T01:06:15;99307.88;;;4.27;69.70
68137;BME280;54939;50.826;9.030;2023-01-31T01:06:45;99313.03;;;4.29;69.67
68137;BME280;54939;50.826;9.030;2023-01-31T01:07:16;99310.50;;;4.27;70.15
68137;BME280;54939;50.826;9.030;2023-01-31T01:07:46;99306.16;;;4.26;70.46
68137;BME280;54939;50.826;9.030;2023-01-31T01:08:16;99307.97;;;4.26;69.96
68137;BME280;54939;50.826;9.030;2023-01-31T01:08:47;99315.88;;;4.26;70.25
68137;BME280;54939;50.826;9.030;2023-01-31T01:09:17;99308.81;;;4.26;69.85
68137;BME280;54939;50.826;9.030;2023-01-31T01:09:47;99317.50;;;4.28;70.31
68137;BME280;54939;50.826;9.030;2023-01-31T01:10:17;99315.78;;;4.27;70.23
68137;BME280;54939;50.826;9.030;2023-01-31T01:10:47;99318.44;;;4.27;70.50
68137;BME280;54939;50.826;9.030;2023-01-31T01:11:22;99312.41;;;4.25;69.85
68137;BME280;54939;50.826;9.030;2023-01-31T01:11:52;99317.59;;;4.27;70.38
68137;BME280;54939;50.826;9.030;2023-01-31T01:12:22;99309.56;;;4.28;70.50
68137;BME280;54939;50.826;9.030;2023-01-31T01:12:53;99310.38;;;4.29;70.05
68137;BME280;54939;50.826;9.030;2023-01-31T01:13:23;99316.53;;;4.29;70.41
68137;BME280;54939;50.826;9.030;2023-01-31T01:13:53;99307.75;;;4.29;70.48
68137;BME280;54939;50.826;9.030;2023-01-31T01:14:24;99315.66;;;4.29;69.77
68137;BME280;54939;50.826;9.030;2023-01-31T01:14:54;99312.31;;;4.27;70.42
68137;BME280;54939;50.826;9.030;2023-01-31T01:15:24;99317.59;;;4.27;70.21
68137;BME280;54939;50.826;9.030;2023-01-31T01:15:54;99313.16;;;4.27;69.78
68137;BME280;54939;50.826;9.030;2023-01-31T01:16:25;99311.47;;;4.26;70.30
68137;BME280;54939;50.826;9.030;2023-01-31T01:16:56;99311.47;;;4.26;70.38
68137;BME280;54939;50.826;9.030;2023-01-31T01:17:28;99317.59;;;4.27;70.50
68137;BME280;54939;50.826;9.030;2023-01-31T01:17:58;99315.03;;;4.25;70.37
68137;BME280;54939;50.826;9.030;2023-01-31T01:18:28;99311.47;;;4.26;69.99
68137;BME280;54939;50.826;9.030;2023-01-31T01:19:00;99308.81;;;4.26;69.84
68137;BME280;54939;50.826;9.030;2023-01-31T01:19:30;99313.16;;;4.27;70.47
68137;BME280;54939;50.826;9.030;2023-01-31T01:20:00;99310.50;;;4.27;69.70
68137;BME280;54939;50.826;9.030;2023-01-31T01:20:33;99316.66;;;4.28;70.26
68137;BME280;54939;50.826;9.030;2023-01-31T01:21:04;99322.78;;;4.28;69.88
68137;BME280;54939;50.826;9.030;2023-01-31T01:21:34;99308.72;;;4.28;69.77
68137;BME280;54939;50.826;9.030;2023-01-31T01:22:09;99317.59;;;4.27;70.30
68137;BME280;54939;50.826;9.030;2023-01-31T01:22:45;99316.75;;;4.26;70.27
68137;BME280;54939;50.826;9.030;2023-01-31T01:23:15;99314.09;;;4.26;70.46
68137;BME280;54939;50.826;9.030;2023-01-31T01:23:45;99323.72;;;4.27;70.14
68137;BME280;54939;50.826;9.030;2023-01-31T01:24:18;99323.72;;;4.27;69.79
68137;BME280;54939;50.826;9.030;2023-01-31T01:24:48;99323.72;;;4.27;69.69
68137;BME280;54939;50.826;9.030;2023-01-31T01:25:19;99325.50;;;4.27;69.93
68137;BME280;54939;50.826;9.030;2023-01-31T01:25:49;99322.88;;;4.27;70.31
68137;BME280;54939;50.826;9.030;2023-01-31T01:26:23;99322.03;;;4.26;69.88
68137;BME280;54939;50.826;9.030;2023-01-31T01:26:54;99324.66;;;4.26;70.11
68137;BME280;54939;50.826;9.030;2023-01-31T01:27:24;99323.72;;;4.27;70.51
68137;BME280;54939;50.826;9.030;2023-01-31T01:27:56;99325.44;;;4.28;69.90
68137;BME280;54939;50.826;9.030;2023-01-31T01:28:26;99330.72;;;4.28;69.74
68137;BME280;54939;50.826;9.030;2023-01-31T01:28:56;99330.81;;;4.27;69.68
68137;BME280;54939;50.826;9.030;2023-01-31T01:29:27;99332.59;;;4.26;69.95
68137;BME280;54939;50.826;9.030;2023-01-31T01:29:57;99335.25;;;4.26;69.58
68137;BME280;54939;50.826;9.030;2023-01-31T01:30:28;99333.44;;;4.27;69.77
68137;BME280;54939;50.826;9.030;2023-01-31T01:30:58;99331.75;;;4.26;69.79
68137;BME280;54939;50.826;9.030;2023-01-31T01:31:28;99329.97;;;4.26;70.06
68137;BME280;54939;50.826;9.030;2023-01-31T01:31:59;99332.50;;;4.28;69.89
68137;BME280;54939;50.826;9.030;2023-01-31T01:32:29;99332.38;;;4.29;69.86
68137;BME280;54939;50.826;9.030;2023-01-31T01:32:59;99331.44;;;4.30;69.74
68137;BME280;54939;50.826;9.030;2023-01-31T01:33:29;99333.22;;;4.30;69.69
68137;BME280;54939;50.826;9.030;2023-01-31T01:34:01;99330.59;;;4.30;70.21
68137;BME280;54939;50.826;9.030;2023-01-31T01:34:32;99329.75;;;4.29;69.86
68137;BME280;54939;50.826;9.030;2023-01-31T01:35:02;99333.22;;;4.30;69.82
68137;BME280;54939;50.826;9.030;2023-01-31T01:35:32;99337.66;;;4.29;70.31
68137;BME280;54939;50.826;9.030;2023-01-31T01:36:03;99337.66;;;4.29;69.91
68137;BME280;54939;50.826;9.030;2023-01-31T01:36:35;99336.72;;;4.30;69.70
68137;BME280;54939;50.826;9.030;2023-01-31T01:37:06;99336.81;;;4.29;70.42
68137;BME280;54939;50.826;9.030;2023-01-31T01:37:40;99331.66;;;4.27;70.31
68137;BME280;54939;50.826;9.030;2023-01-31T01:38:10;99333.44;;;4.27;70.23
68137;BME280;54939;50.826;9.030;2023-01-31T01:38:41;99333.44;;;4.27;69.95
68137;BME280;54939;50.826;9.030;2023-01-31T01:39:12;99328.88;;;4.29;70.11
68137;BME280;54939;50.826;9.030;2023-01-31T01:39:42;99333.34;;;4.28;70.04
68137;BME280;54939;50.826;9.030;2023-01-31T01:40:12;99331.66;;;4.27;69.93
68137;BME280;54939;50.826;9.030;2023-01-31T01:40:42;99326.38;;;4.27;70.58
68137;BME280;54939;50.826;9.030;2023-01-31T01:41:13;99330.72;;;4.28;69.78
68137;BME280;54939;50.826;9.030;2023-01-31T01:41:44;99340.44;;;4.28;70.42
68137;BME280;54939;50.826;9.030;2023-01-31T01:42:15;99336.00;;;4.28;69.82
68137;BME280;54939;50.826;9.030;2023-01-31T01:42:45;99347.38;;;4.29;70.33
68137;BME280;54939;50.826;9.030;2023-01-31T01:43:15;99341.28;;;4.28;69.88
68137;BME280;54939;50.826;9.030;2023-01-31T01:43:56;99342.09;;;4.29;70.35
68137;BME280;54939;50.826;9.030;2023-01-31T01:45:14;99333.34;;;4.28;69.92
68137;BME280;54939;50.826;9.030;2023-01-31T01:45:45;99343.94;;;4.28;69.69
68137;BME280;54939;50.826;9.030;2023-01-31T01:46:26;99334.16;;;4.29;70.18
68137;BME280;54939;50.826;9.030;2023-01-31T01:46:57;99338.63;;;4.28;70.13
68137;BME280;54939;50.826;9.030;2023-01-31T01:48:02;99330.59;;;4.30;70.22
68137;BME280;54939;50.826;9.030;2023-01-31T01:48:35;99334.16;;;4.29;69.96
68137;BME280;54939;50.826;9.030;2023-01-31T01:49:17;99335.03;;;4.29;69.58
68137;BME280;54939;50.826;9.030;2023-01-31T01:49:54;99341.28;;;4.28;70.22
68137;BME280;54939;50.826;9.030;2023-01-31T01:50:33;99348.38;;;4.28;70.43
68137;BME280;54939;50.826;9.030;2023-01-31T01:51:05;99334.28;;;4.27;70.02
68137;BME280;54939;50.826;9.030;2023-01-31T01:51:36;99334.28;;;4.27;69.89
68137;BME280;54939;50.826;9.030;2023-01-31T01:52:07;99338.72;;;4.27;70.45
68137;BME280;54939;50.826;9.030;2023-01-31T01:52:40;99346.56;;;4.28;70.21
68137;BME280;54939;50.826;9.030;2023-01-31T01:53:19;99336.00;;;4.28;69.81
68137;BME280;54939;50.826;9.030;2023-01-31T01:53:51;99343.94;;;4.28;69.97
68137;BME280;54939;50.826;9.030;2023-01-31T01:54:25;99342.22;;;4.27;70.51
68137;BME280;54939;50.826;9.030;2023-01-31T01:54:59;99347.50;;;4.27;70.23
68137;BME280;54939;50.826;9.030;2023-01-31T01:55:33;99339.69;;;4.26;70.47
68137;BME280;54939;50.826;9.030;2023-01-31T01:56:06;99345.72;;;4.28;70.58
68137;BME280;54939;50.826;9.030;2023-01-31T01:56:38;99345.72;;;4.28;69.80
68137;BME280;54939;50.826;9.030;2023-01-31T01:57:10;99349.31;;;4.27;70.01
68137;BME280;54939;50.826;9.030;2023-01-31T01:57:42;99351.09;;;4.26;69.85
68137;BME280;54939;50.826;9.030;2023-01-31T01:58:16;99344.97;;;4.26;70.56
68137;BME280;54939;50.826;9.030;2023-01-31T01:58:52;99349.31;;;4.27;69.81
68137;BME280;54939;50.826;9.030;2023-01-31T01:59:24;99353.75;;;4.26;69.99
68137;BME280;54939;50.826;9.030;2023-01-31T02:00:42;99345.81;;;4.26;69.93
68137;BME280;54939;50.826;9.030;2023-01-31T02:00:47;99339.59;;;4.27;69.99
68137;BME280;54939;50.826;9.030;2023-01-31T02:01:18;99336.94;;;4.27;70.08
68137;BME280;54939;50.826;9.030;2023-01-31T02:01:48;99335.34;;;4.25;70.38
68137;BME280;54939;50.826;9.030;2023-01-31T02:02:19;99331.75;;;4.26;70.54
68137;BME280;54939;50.826;9.030;2023-01-31T02:02:51;99327.31;;;4.26;70.24
68137;BME280;54939;50.826;9.030;2023-01-31T02:03:22;99329.19;;;4.24;69.90
68137;BME280;54939;50.826;9.030;2023-01-31T02:03:52;99322.13;;;4.25;69.98
68137;BME280;54939;50.826;9.030;2023-01-31T02:04:24;99329.09;;;4.26;70.48
68137;BME280;54939;50.826;9.030;2023-01-31T02:04:56;99325.69;;;4.24;70.01
68137;BME280;54939;50.826;9.030;2023-01-31T02:05:27;99328.16;;;4.27;70.42
68137;BME280;54939;50.826;9.030;2023-01-31T02:06:00;99330.81;;;4.27;69.99
68137;BME280;54939;50.826;9.030;2023-01-31T02:06:31;99333.44;;;4.27;70.50
68137;BME280;54939;50.826;9.030;2023-01-31T02:07:02;99335.25;;;4.26;70.50
68137;BME280;54939;50.826;9.030;2023-01-31T02:07:32;99332.59;;;4.26;70.35
68137;BME280;54939;50.826;9.030;2023-01-31T02:08:02;99339.59;;;4.27;69.95
68137;BME280;54939;50.826;9.030;2023-01-31T02:08:34;99336.94;;;4.27;70.55
68137;BME280;54939;50.826;9.030;2023-01-31T02:09:05;99338.72;;;4.27;69.71
68137;BME280;54939;50.826;9.030;2023-01-31T02:09:53;99337.88;;;4.26;70.12
68137;BME280;54939;50.826;9.030;2023-01-31T02:10:30;99336.94;;;4.27;70.41
68137;BME280;54939;50.826;9.030;2023-01-31T02:11:07;99333.44;;;4.27;70.04
68137;BME280;54939;50.826;9.030;2023-01-31T02:11:38;99335.16;;;4.28;70.13
68137;BME280;54939;50.826;9.030;2023-01-31T02:12:09;99333.44;;;4.27;70.00
68137;BME280;54939;50.826;9.030;2023-01-31T02:12:40;99331.75;;;4.26;69.85
68137;BME280;54939;50.826;9.030;2023-01-31T02:13:10;99340.44;;;4.28;70.45
68137;BME280;54939;50.826;9.030;2023-01-31T02:13:42;99333.44;;;4.27;69.95
68137;BME280;54939;50.826;9.030;2023-01-31T02:14:14;99338.72;;;4.27;70.56
68137;BME280;54939;50.826;9.030;2023-01-31T02:14:44;99337.88;;;4.26;70.21
68137;BME280;54939;50.826;9.030;2023-01-31T02:15:16;99342.22;;;4.27;69.79
68137;BME280;54939;50.826;9.030;2023-01-31T02:15:46;99332.59;;;4.26;70.65
68137;BME280;54939;50.826;9.030;2023-01-31T02:16:16;99330.91;;;4.25;70.59
68137;BME280;54939;50.826;9.030;2023-01-31T02:16:47;99338.81;;;4.25;69.80
68137;BME280;54939;50.826;9.030;2023-01-31T02:17:18;99336.19;;;4.25;69.79
68137;BME280;54939;50.826;9.030;2023-01-31T02:17:48;99326.56;;;4.24;69.79
68137;BME280;54939;50.826;9.030;2023-01-31T02:18:19;99327.41;;;4.25;69.77
68137;BME280;54939;50.826;9.030;2023-01-31T02:18:50;99328.25;;;4.25;69.88
68137;BME280;54939;50.826;9.030;2023-01-31T02:22:46;99331.75;;;4.26;70.28
68137;BME280;54939;50.826;9.030;2023-01-31T02:25:36;99338.81;;;4.25;69.95
68137;BME280;54939;50.826;9.030;2023-01-31T02:27:47;99347.50;;;4.27;69.98
68137;BME280;54939;50.826;9.030;2023-01-31T02:30:25;99346.75;;;4.25;70.38
68137;BME280;54939;50.826;9.030;2023-01-31T02:31:08;99350.25;;;4.26;70.56
68137;BME280;54939;50.826;9.030;2023-01-31T02:32:35;99350.16;;;4.27;70.53
68137;BME280;54939;50.826;9.030;2023-01-31T02:33:17;99351.94;;;4.27;70.23
68137;BME280;54939;50.826;9.030;2023-01-31T02:33:51;99352.78;;;4.27;70.48
68137;BME280;54939;50.826;9.030;2023-01-31T02:34:33;99355.53;;;4.26;70.12
68137;BME280;54939;50.826;9.030;2023-01-31T02:36:55;99351.84;;;4.28;70.53
68137;BME280;54939;50.826;9.030;2023-01-31T02:38:59;99349.31;;;4.27;69.87
68137;BME280;54939;50.826;9.030;2023-01-31T02:39:39;99354.69;;;4.25;70.46
68137;BME280;54939;50.826;9.030;2023-01-31T02:40:24;99350.25;;;4.26;70.63
68137;BME280;54939;50.826;9.030;2023-01-31T02:41:09;99352.03;;;4.25;69.97
68137;BME280;54939;50.826;9.030;2023-01-31T02:41:50;99350.25;;;4.26;69.80
68137;BME280;54939;50.826;9.030;2023-01-31T02:43:07;99351.00;;;4.28;69.99
68137;BME280;54939;50.826;9.030;2023-01-31T02:43:18;99353.75;;;4.26;70.31
68137;BME280;54939;50.826;9.030;2023-01-31T02:44:51;99353.75;;;4.26;70.36
68137;BME280;54939;50.826;9.030;2023-01-31T02:45:34;99366.97;;;4.26;70.37
68137;BME280;54939;50.826;9.030;2023-01-31T02:46:08;99366.00;;;4.27;70.57
68137;BME280;54939;50.826;9.030;2023-01-31T02:48:29;99353.75;;;4.26;70.10
68137;BME280;54939;50.826;9.030;2023-01-31T02:49:21;99359.97;;;4.25;70.14
68137;BME280;54939;50.826;9.030;2023-01-31T02:50:11;99358.19;;;4.26;69.99
68137;BME280;54939;50.826;9.030;2023-01-31T02:51:22;99354.59;;;4.27;70.00
68137;BME280;54939;50.826;9.030;2023-01-31T02:51:54;99358.19;;;4.26;70.32
68137;BME280;54939;50.826;9.030;2023-01-31T02:52:47;99363.47;;;4.26;70.50
68137;BME280;54939;50.826;9.030;2023-01-31T02:53:55;99366.97;;;4.26;70.12
68137;BME280;54939;50.826;9.030;2023-01-31T02:54:28;99365.25;;;4.25;70.61
68137;BME280;54939;50.826;9.030;2023-01-31T02:55:22;99361.56;;;4.28;70.36
68137;BME280;54939;50.826;9.030;2023-01-31T02:56:18;99365.16;;;4.27;69.66
68137;BME280;54939;50.826;9.030;2023-01-31T02:56:52;99362.53;;;4.27;69.74
68137;BME280;54939;50.826;9.030;2023-01-31T02:57:22;99367.72;;;4.28;70.29
68137;BME280;54939;50.826;9.030;2023-01-31T02:57:53;99372.16;;;4.28;70.46
68137;BME280;54939;50.826;9.030;2023-01-31T02:58:26;99375.72;;;4.27;70.48
68137;BME280;54939;50.826;9.030;2023-01-31T02:58:58;99375.72;;;4.27;69.99
68137;BME280;54939;50.826;9.030;2023-01-31T02:59:29;99373.94;;;4.27;70.29
68137;BME280;54939;50.826;9.030;2023-01-31T03:00:00;99376.69;;;4.26;69.84
68137;BME280;54939;50.826;9.030;2023-01-31T03:00:33;99373.09;;;4.27;69.81
68137;BME280;54939;50.826;9.030;2023-01-31T03:01:04;99378.38;;;4.27;69.87
68137;BME280;54939;50.826;9.030;2023-01-31T03:01:45;99385.47;;;4.26;70.46
68137;BME280;54939;50.826;9.030;2023-01-31T03:02:16;99377.44;;;4.28;70.10
68137;BME280;54939;50.826;9.030;2023-01-31T03:02:46;99384.50;;;4.27;70.45
68137;BME280;54939;50.826;9.030;2023-01-31T03:03:27;99380.16;;;4.26;69.98
68137;BME280;54939;50.826;9.030;2023-01-31T03:03:58;99388.94;;;4.27;70.54
68137;BME280;54939;50.826;9.030;2023-01-31T03:04:31;99390.75;;;4.26;70.31
68137;BME280;54939;50.826;9.030;2023-01-31T03:05:02;99390.66;;;4.28;70.00
68137;BME280;54939;50.826;9.030;2023-01-31T03:05:32;99393.28;;;4.28;69.88
68137;BME280;54939;50.826;9.030;2023-01-31T03:07:32;99388.94;;;4.27;70.26
68137;BME280;54939;50.826;9.030;2023-01-31T03:08:04;99392.44;;;4.27;69.71
68137;BME280;54939;50.826;9.030;2023-01-31T03:08:37;99393.28;;;4.28;69.91
68137;BME280;54939;50.826;9.030;2023-01-31T03:09:10;99388.09;;;4.26;70.29
68137;BME280;54939;50.826;9.030;2023-01-31T03:10:12;99386.31;;;4.27;70.45
68137;BME280;54939;50.826;9.030;2023-01-31T03:10:54;99387.16;;;4.27;69.73
68137;BME280;54939;50.826;9.030;2023-01-31T03:11:34;99389.69;;;4.29;70.50
68137;BME280;54939;50.826;9.030;2023-01-31T03:12:47;99384.59;;;4.26;70.09
68137;BME280;54939;50.826;9.030;2023-01-31T03:13:31;99387.25;;;4.26;70.38
68137;BME280;54939;50.826;9.030;2023-01-31T03:14:06;99378.47;;;4.25;70.62
68137;BME280;54939;50.826;9.030;2023-01-31T03:14:41;99385.53;;;4.25;70.63
68137;BME280;54939;50.826;9.030;2023-01-31T03:15:21;99385.38;;;4.28;70.42